Time;durP1;ratioP1;P1;durP2;ratioP2;P2;SDS_P1;SDS_P2;PMS_P1;PMS_P2;Temp;Humidity;BMP_temperature;BMP_pressure;BME280_temperature;BME280_humidity;BME280_pressure;Samples;Min_cycle;Max_cycle;Signal;HPM_P1;HPM_P2
2022/10/05 00:01:29;;;;;;;5.43;3.67;;;16.80;73.80;;;;;;5092473;28;20027;-74
2022/10/05 00:04:12;;;;;;;5.97;3.60;;;16.80;73.80;;;;;;5074311;28;20031;-75
2022/10/05 00:06:37;;;;;;;6.03;4.07;;;16.80;73.80;;;;;;5092431;28;20058;-74
2022/10/05 00:09:15;;;;;;;5.18;3.45;;;16.80;73.90;;;;;;5092462;28;20051;-75
2022/10/05 00:11:40;;;;;;;6.00;3.35;;;16.80;73.90;;;;;;5092611;28;20081;-74
2022/10/05 00:14:20;;;;;;;6.90;3.75;;;16.80;74.00;;;;;;5092240;28;20020;-74
2022/10/05 00:16:46;;;;;;;6.13;3.58;;;16.70;74.00;;;;;;5074100;28;20034;-75
2022/10/05 00:19:36;;;;;;;4.45;3.53;;;16.80;74.10;;;;;;5092235;28;20475;-74
2022/10/05 00:22:10;;;;;;;6.40;3.70;;;16.80;74.10;;;;;;5074030;28;20016;-75
2022/10/05 00:24:37;;;;;;;5.50;3.60;;;16.70;74.10;;;;;;5092040;28;20059;-74
2022/10/05 00:27:13;;;;;;;4.60;3.40;;;16.70;74.20;;;;;;5092154;28;20412;-75
2022/10/05 00:29:39;;;;;;;5.60;3.47;;;16.70;74.30;;;;;;5073705;28;20058;-74
2022/10/05 00:32:04;;;;;;;5.68;3.65;;;16.70;74.30;;;;;;5073873;28;20027;-74
2022/10/05 00:34:33;;;;;;;4.40;3.28;;;16.70;75.00;;;;;;5091710;28;20024;-74
2022/10/05 00:36:58;;;;;;;5.22;3.60;;;16.70;74.40;;;;;;5091967;28;20093;-74
2022/10/05 00:39:24;;;;;;;7.28;3.78;;;16.70;74.50;;;;;;5091870;28;20391;-74
2022/10/05 00:41:56;;;;;;;6.07;3.85;;;16.60;74.50;;;;;;5091880;28;20016;-74
2022/10/05 00:44:32;;;;;;;4.57;3.38;;;16.60;74.60;;;;;;5091803;28;20043;-74
2022/10/05 00:47:21;;;;;;;4.35;3.67;;;16.60;74.60;;;;;;5091723;28;20024;-74
2022/10/05 00:50:20;;;;;;;4.22;3.40;;;16.60;74.60;;;;;;5091645;28;20088;-74
2022/10/05 00:52:53;;;;;;;4.03;3.20;;;16.60;74.70;;;;;;5073577;28;20028;-75
2022/10/05 00:55:25;;;;;;;6.75;3.63;;;16.60;74.70;;;;;;5091747;28;20523;-75
2022/10/05 00:57:57;;;;;;;5.63;3.50;;;16.60;74.70;;;;;;5073356;28;20031;-75
2022/10/05 01:00:25;;;;;;;4.60;3.70;;;16.70;74.80;;;;;;5073716;28;20031;-75
2022/10/05 01:02:55;;;;;;;4.22;3.50;;;16.60;74.80;;;;;;5088241;28;20364;-75
2022/10/05 01:05:42;;;;;;;4.85;3.88;;;16.70;74.90;;;;;;5091493;28;20027;-76
2022/10/05 01:08:29;;;;;;;4.43;3.60;;;16.70;74.90;;;;;;5091483;28;20035;-75
2022/10/05 01:11:08;;;;;;;5.72;3.65;;;16.70;74.90;;;;;;5091486;28;20020;-76
2022/10/05 01:13:48;;;;;;;3.97;3.10;;;16.70;74.90;;;;;;5091360;28;20020;-76
2022/10/05 01:16:43;;;;;;;4.78;3.67;;;16.60;75.00;;;;;;5091469;28;20103;-75
2022/10/05 01:19:20;;;;;;;5.63;3.60;;;16.60;75.00;;;;;;5073135;28;20070;-75
2022/10/05 01:21:57;;;;;;;5.10;3.80;;;16.60;75.10;;;;;;5079555;28;20383;-75
2022/10/05 01:24:43;;;;;;;5.68;3.63;;;16.60;75.10;;;;;;5080149;28;20065;-75
2022/10/05 01:27:51;;;;;;;4.70;3.65;;;16.60;75.20;;;;;;5079772;28;20032;-75
2022/10/05 01:30:20;;;;;;;5.70;3.90;;;16.60;75.20;;;;;;5034910;28;20195;-75
2022/10/05 01:33:00;;;;;;;6.25;3.58;;;16.60;75.30;;;;;;5018649;28;20029;-75
2022/10/05 01:36:05;;;;;;;5.80;4.15;;;16.60;75.40;;;;;;5054553;28;20510;-75
2022/10/05 01:38:43;;;;;;;5.50;4.20;;;16.60;75.40;;;;;;5076368;28;20181;-75
2022/10/05 01:41:21;;;;;;;4.53;3.83;;;16.60;75.50;;;;;;5097857;28;20047;-75
2022/10/05 01:43:59;;;;;;;5.72;4.35;;;16.60;75.60;;;;;;5079621;28;20024;-75
2022/10/05 01:46:34;;;;;;;5.80;4.32;;;16.50;75.60;;;;;;5097733;28;20110;-75
2022/10/05 01:49:58;;;;;;;5.30;4.03;;;16.50;75.70;;;;;;5097820;28;20059;-75
2022/10/05 01:52:50;;;;;;;7.28;3.95;;;16.50;75.70;;;;;;5018381;28;20026;-75
2022/10/05 01:55:29;;;;;;;5.10;3.80;;;16.50;75.80;;;;;;5018251;28;20091;-75
2022/10/05 01:58:26;;;;;;;5.38;4.10;;;16.50;75.80;;;;;;5071857;28;20042;-75
2022/10/05 02:01:26;;;;;;;7.50;4.47;;;16.50;75.90;;;;;;5097720;28;20024;-75
2022/10/05 02:04:06;;;;;;;4.30;3.50;;;16.50;75.90;;;;;;5097741;28;20024;-75
2022/10/05 02:06:38;;;;;;;7.20;4.25;;;16.50;76.00;;;;;;5097632;28;20016;-75
2022/10/05 02:09:20;;;;;;;5.80;4.05;;;16.50;76.10;;;;;;5079494;28;20126;-75
2022/10/05 02:12:05;;;;;;;6.53;4.72;;;16.40;76.20;;;;;;5079407;28;20028;-75
2022/10/05 02:14:37;;;;;;;6.32;4.50;;;16.40;76.40;;;;;;5079134;28;20081;-75
2022/10/05 02:17:10;;;;;;;6.63;4.05;;;16.40;76.50;;;;;;5097556;28;20047;-75
2022/10/05 02:19:43;;;;;;;4.97;3.97;;;16.30;76.50;;;;;;5097492;28;20016;-75
2022/10/05 02:22:26;;;;;;;6.45;4.75;;;16.30;76.60;;;;;;5079218;28;20016;-75
2022/10/05 02:25:20;;;;;;;6.35;4.10;;;16.30;76.70;;;;;;5097376;28;20028;-75
2022/10/05 02:28:04;;;;;;;5.93;4.60;;;16.20;76.70;;;;;;5095189;28;20579;-74
2022/10/05 02:30:34;;;;;;;6.85;4.55;;;16.30;76.90;;;;;;5079188;28;20048;-74
2022/10/05 02:33:05;;;;;;;7.03;4.60;;;16.20;76.80;;;;;;5074956;28;20024;-74
2022/10/05 02:35:31;;;;;;;9.13;4.70;;;16.20;76.90;;;;;;5075997;28;20032;-74
2022/10/05 02:38:29;;;;;;;6.13;4.45;;;16.20;77.00;;;;;;5076115;28;20119;-74
2022/10/05 02:41:22;;;;;;;6.32;4.40;;;16.20;77.10;;;;;;5094308;28;20063;-74
2022/10/05 02:44:16;;;;;;;5.95;4.72;;;16.10;77.20;;;;;;5094184;28;20059;-74
2022/10/05 02:47:11;;;;;;;6.97;5.22;;;16.10;77.30;;;;;;5094336;28;20077;-74
2022/10/05 02:49:50;;;;;;;7.07;4.88;;;16.10;77.40;;;;;;5094257;28;20431;-74
2022/10/05 02:52:34;;;;;;;5.30;4.65;;;16.00;77.50;;;;;;5094231;28;20036;-74
2022/10/05 02:55:22;;;;;;;6.13;4.97;;;16.00;77.60;;;;;;5093968;28;20479;-75
2022/10/05 02:57:55;;;;;;;5.82;4.82;;;16.00;77.60;;;;;;5093915;28;20383;-75
2022/10/05 03:00:23;;;;;;;6.53;4.88;;;16.00;77.60;;;;;;5075726;28;20075;-74
2022/10/05 03:03:07;;;;;;;7.22;4.70;;;16.00;77.70;;;;;;5093656;28;20073;-75
2022/10/05 03:05:40;;;;;;;6.18;4.50;;;16.00;77.80;;;;;;5093848;28;20043;-74
2022/10/05 03:08:12;;;;;;;;;;;15.90;77.80;;;;;;5075955;28;20028;-74
2022/10/05 03:11:08;;;;;;;6.68;4.57;;;15.90;77.80;;;;;;5075387;28;19961;-74
2022/10/05 03:14:09;;;;;;;7.13;4.93;;;15.90;77.80;;;;;;5093441;28;20713;-74
2022/10/05 03:16:45;;;;;;;6.82;5.45;;;15.90;77.90;;;;;;5093389;28;20026;-74
2022/10/05 03:19:32;;;;;;;7.72;5.28;;;15.90;77.90;;;;;;5075143;28;20115;-74
2022/10/05 03:22:12;;;;;;;6.90;5.35;;;16.00;78.00;;;;;;5093252;28;20032;-74
2022/10/05 03:24:47;;;;;;;5.70;4.63;;;15.90;77.90;;;;;;5093158;28;20024;-75
2022/10/05 03:27:42;;;;;;;8.23;5.30;;;15.90;78.00;;;;;;5093399;28;20060;-74
2022/10/05 03:30:17;;;;;;;7.05;5.00;;;16.00;78.00;;;;;;5085957;28;20098;-74
2022/10/05 03:33:18;;;;;;;6.93;5.38;;;16.00;78.00;;;;;;5093138;28;20511;-75
2022/10/05 03:36:01;;;;;;;8.70;5.57;;;16.00;78.00;;;;;;5082790;28;20471;-74
2022/10/05 03:38:46;;;;;;;5.93;4.63;;;16.00;78.00;;;;;;5092994;28;20119;-75
2022/10/05 03:41:17;;;;;;;7.93;5.68;;;16.00;78.00;;;;;;5074741;28;20769;-74
2022/10/05 03:44:07;;;;;;;6.72;4.80;;;16.00;78.00;;;;;;5092511;28;20118;-75
2022/10/05 03:46:35;;;;;;;8.23;5.60;;;16.00;78.00;;;;;;5074546;28;20058;-75
2022/10/05 03:49:07;;;;;;;6.40;5.25;;;16.00;78.00;;;;;;5074586;28;20032;-74
2022/10/05 03:51:41;;;;;;;5.50;4.80;;;16.00;78.10;;;;;;5092729;28;20487;-74
2022/10/05 03:54:27;;;;;;;7.60;5.20;;;16.00;78.10;;;;;;5092588;28;20089;-75
2022/10/05 03:57:12;;;;;;;5.75;4.88;;;16.00;78.10;;;;;;5092630;28;20031;-74
2022/10/05 04:00:01;;;;;;;7.10;4.82;;;16.00;78.10;;;;;;5092455;28;20064;-74
2022/10/05 04:02:54;;;;;;;5.32;4.43;;;16.10;78.10;;;;;;5092473;28;20057;-74
2022/10/05 04:05:46;;;;;;;7.15;5.25;;;16.10;78.10;;;;;;5092361;28;20052;-74
2022/10/05 04:08:35;;;;;;;5.95;5.05;;;16.10;78.10;;;;;;5092325;28;20058;-74
2022/10/05 04:11:10;;;;;;;6.07;4.82;;;16.10;78.10;;;;;;5092421;28;20103;-74
2022/10/05 04:14:03;;;;;;;6.70;5.03;;;16.10;78.10;;;;;;5092259;28;20067;-74
2022/10/05 04:16:43;;;;;;;7.70;5.10;;;16.10;78.10;;;;;;5091483;28;20056;-74
2022/10/05 04:19:21;;;;;;;7.07;5.03;;;16.10;78.10;;;;;;5092276;28;20590;-74
2022/10/05 04:22:18;;;;;;;6.70;5.03;;;16.10;78.10;;;;;;5073888;28;20024;-75
2022/10/05 04:25:23;;;;;;;6.60;4.75;;;16.10;78.10;;;;;;5036660;28;20522;-74
2022/10/05 04:28:13;;;;;;;7.10;4.55;;;16.10;78.10;;;;;;5073696;28;20483;-75
2022/10/05 04:30:43;;;;;;;6.82;4.00;;;16.10;78.10;;;;;;5073799;28;20024;-74
2022/10/05 04:33:14;;;;;;;6.75;4.90;;;16.10;78.10;;;;;;5073535;28;20028;-74
2022/10/05 04:35:46;;;;;;;6.85;5.03;;;16.10;78.10;;;;;;5073953;28;20540;-74
2022/10/05 04:38:35;;;;;;;5.85;4.80;;;16.10;78.10;;;;;;5073660;28;20032;-75
2022/10/05 04:41:30;;;;;;;5.82;4.38;;;16.10;78.10;;;;;;5073744;28;20363;-74
2022/10/05 04:44:15;;;;;;;6.90;4.43;;;16.10;78.00;;;;;;5091768;28;20080;-74
2022/10/05 04:46:56;;;;;;;5.82;4.72;;;16.10;78.10;;;;;;5091661;28;20053;-74
2022/10/05 04:49:50;;;;;;;5.72;4.40;;;16.10;78.10;;;;;;5073406;28;20036;-75
2022/10/05 04:52:25;;;;;;;5.88;4.35;;;16.10;78.10;;;;;;5091717;28;20035;-75
2022/10/05 04:55:17;;;;;;;7.10;4.30;;;16.10;78.10;;;;;;5090909;28;20036;-75
2022/10/05 04:58:11;;;;;;;5.75;4.55;;;16.10;78.80;;;;;;5073510;28;20089;-75
2022/10/05 05:00:37;;;;;;;7.05;4.53;;;16.10;78.10;;;;;;5091474;28;20043;-74
2022/10/05 05:03:30;;;;;;;6.22;4.15;;;16.10;78.10;;;;;;5073240;28;20036;-74
2022/10/05 05:06:38;;;;;;;5.27;4.73;;;16.10;78.20;;;;;;5073218;28;20028;-74
2022/10/05 05:09:45;;;;;;;5.20;4.20;;;16.10;78.20;;;;;;5091330;28;20311;-74
2022/10/05 05:12:10;;;;;;;4.90;4.20;;;16.10;78.10;;;;;;5091383;28;20475;-74
2022/10/05 05:14:59;;;;;;;6.90;4.57;;;16.10;78.10;;;;;;5073069;28;20058;-74
2022/10/05 05:17:48;;;;;;;5.65;4.22;;;16.10;78.20;;;;;;5091367;28;20029;-74
2022/10/05 05:20:17;;;;;;;5.25;4.13;;;16.10;78.10;;;;;;5073174;28;20020;-74
2022/10/05 05:22:55;;;;;;;4.55;4.13;;;16.00;78.10;;;;;;5091310;28;20479;-74
2022/10/05 05:25:35;;;;;;;6.80;4.18;;;16.00;78.20;;;;;;5072921;28;20072;-75
2022/10/05 05:28:18;;;;;;;5.68;4.53;;;16.00;78.20;;;;;;5073050;28;20093;-75
2022/10/05 05:30:55;;;;;;;4.80;4.13;;;16.00;78.20;;;;;;5091322;28;20044;-74
2022/10/05 05:33:39;;;;;;;5.88;4.70;;;16.00;78.20;;;;;;5072881;28;20491;-74
2022/10/05 05:36:22;;;;;;;6.63;4.40;;;16.00;78.20;;;;;;5072953;28;20111;-74
2022/10/05 05:39:06;;;;;;;7.03;4.68;;;16.00;78.20;;;;;;5091023;28;20043;-75
2022/10/05 05:42:20;;;;;;;5.70;4.30;;;16.00;78.30;;;;;;5091057;28;20032;-74
2022/10/05 05:44:52;;;;;;;5.27;3.87;;;16.00;78.20;;;;;;5028492;28;20113;-75
2022/10/05 05:47:29;;;;;;;5.10;3.70;;;16.00;78.20;;;;;;5011598;28;20068;-75
2022/10/05 05:50:23;;;;;;;7.53;4.50;;;15.90;78.20;;;;;;5047450;28;20424;-75
2022/10/05 05:52:58;;;;;;;5.65;4.80;;;16.00;78.30;;;;;;5072858;28;20503;-75
2022/10/05 05:55:31;;;;;;;6.07;4.60;;;16.00;78.20;;;;;;5090834;28;20479;-75
2022/10/05 05:58:09;;;;;;;6.60;4.13;;;15.90;78.20;;;;;;5072708;28;20028;-75
2022/10/05 06:00:44;;;;;;;6.22;4.47;;;15.90;78.20;;;;;;5090973;28;20028;-75
2022/10/05 06:03:34;;;;;;;6.38;4.63;;;15.90;78.20;;;;;;5072693;28;20090;-75
2022/10/05 06:06:05;;;;;;;5.25;4.25;;;15.90;78.30;;;;;;5073381;28;20263;-75
2022/10/05 06:09:09;;;;;;;7.18;4.47;;;15.90;78.30;;;;;;5076421;28;20107;-75
2022/10/05 06:11:52;;;;;;;6.10;4.32;;;15.90;78.30;;;;;;5070598;28;20036;-75
2022/10/05 06:14:33;;;;;;;5.72;4.05;;;15.90;78.30;;;;;;5076337;28;20054;-75
2022/10/05 06:17:18;;;;;;;5.95;3.97;;;15.90;78.30;;;;;;5094552;28;20113;-73
2022/10/05 06:19:45;;;;;;;5.10;4.30;;;15.90;78.20;;;;;;5094622;28;20054;-73
2022/10/05 06:22:21;;;;;;;4.25;3.72;;;15.90;78.20;;;;;;5094331;28;20036;-73
2022/10/05 06:25:02;;;;;;;4.00;3.55;;;15.90;78.20;;;;;;5075978;28;20031;-73
2022/10/05 06:28:02;;;;;;;4.55;3.75;;;16.00;78.20;;;;;;5076045;28;20092;-73
2022/10/05 06:30:43;;;;;;;5.00;3.95;;;16.00;78.20;;;;;;5094123;28;20109;-73
2022/10/05 06:33:20;;;;;;;6.50;3.88;;;16.00;78.10;;;;;;5094204;28;20043;-74
2022/10/05 06:36:23;;;;;;;4.10;3.40;;;16.00;78.00;;;;;;5094338;28;20044;-73
2022/10/05 06:39:19;;;;;;;4.97;3.38;;;16.00;78.00;;;;;;5076024;28;20078;-74
2022/10/05 06:42:09;;;;;;;4.47;3.50;;;16.00;78.00;;;;;;5094278;28;20020;-74
2022/10/05 06:44:59;;;;;;;4.10;3.17;;;16.00;77.90;;;;;;5094088;28;20028;-74
2022/10/05 06:47:52;;;;;;;4.35;3.17;;;16.00;77.90;;;;;;5094143;28;20317;-75
2022/10/05 06:50:38;;;;;;;4.32;3.05;;;16.00;77.90;;;;;;5094043;28;20043;-73
2022/10/05 06:53:15;;;;;;;5.22;3.63;;;16.00;77.90;;;;;;5075821;28;20032;-75
2022/10/05 06:56:01;;;;;;;4.63;3.53;;;16.00;77.90;;;;;;5075543;28;20114;-75
2022/10/05 06:58:39;;;;;;;5.20;3.63;;;16.00;77.80;;;;;;5075058;28;20495;-74
2022/10/05 07:01:19;;;;;;;4.32;3.53;;;16.10;77.90;;;;;;5075388;28;20085;-75
2022/10/05 07:03:48;;;;;;;4.47;3.53;;;16.10;77.90;;;;;;5093677;28;20523;-75
2022/10/05 07:06:33;;;;;;;4.00;3.60;;;16.10;77.80;;;;;;5075155;28;20438;-75
2022/10/05 07:09:46;;;;;;;3.90;3.38;;;16.10;77.80;;;;;;5093519;28;20081;-74
2022/10/05 07:12:35;;;;;;;4.20;3.75;;;16.10;77.70;;;;;;5014193;28;20094;-74
2022/10/05 07:15:26;;;;;;;3.83;3.10;;;16.20;77.70;;;;;;5093183;28;20534;-75
2022/10/05 07:18:10;;;;;;;4.82;3.05;;;16.20;77.60;;;;;;5092642;28;20124;-74
2022/10/05 07:21:03;;;;;;;4.65;3.70;;;16.20;77.50;;;;;;5093624;28;20028;-76
2022/10/05 07:23:55;;;;;;;6.72;3.72;;;16.20;77.50;;;;;;5093358;28;20588;-75
2022/10/05 07:26:39;;;;;;;5.35;3.20;;;16.20;77.50;;;;;;5093083;28;20016;-75
2022/10/05 07:29:19;;;;;;;6.63;4.10;;;16.20;77.40;;;;;;5074988;28;20055;-75
2022/10/05 07:32:11;;;;;;;3.53;3.08;;;16.20;77.40;;;;;;5075307;28;20053;-75
2022/10/05 07:34:46;;;;;;;3.90;3.50;;;16.30;77.40;;;;;;5071806;28;20068;-75
2022/10/05 07:40:28;;;;;;;3.75;3.00;;;16.30;77.30;;;;;;5093405;28;20047;-76
2022/10/05 07:42:59;;;;;;;3.33;2.75;;;16.30;77.30;;;;;;5074961;28;20031;-76
2022/10/05 07:45:45;;;;;;;6.50;3.40;;;16.40;77.20;;;;;;5093146;28;20028;-75
2022/10/05 07:48:19;;;;;;;5.55;3.63;;;16.30;77.10;;;;;;5074833;28;20177;-74
2022/10/05 07:50:44;;;;;;;8.20;3.28;;;16.40;77.00;;;;;;5092970;28;20477;-75
2022/10/05 07:53:21;;;;;;;5.90;3.35;;;16.40;76.90;;;;;;5074592;28;20062;-74
2022/10/05 07:55:55;;;;;;;4.90;3.20;;;16.50;77.00;;;;;;5092741;28;20432;-74
2022/10/05 07:58:36;;;;;;;3.90;2.75;;;16.50;76.90;;;;;;5092562;28;20073;-74
2022/10/05 08:01:18;;;;;;;3.92;3.53;;;16.50;76.80;;;;;;5074151;28;20024;-74
2022/10/05 08:03:54;;;;;;;5.75;3.58;;;16.50;76.70;;;;;;5092518;28;20027;-74
2022/10/05 08:06:44;;;;;;;3.90;2.97;;;16.50;76.70;;;;;;5092349;28;20107;-74
2022/10/05 08:09:32;;;;;;;4.38;2.80;;;16.50;76.70;;;;;;5092444;28;20093;-75
2022/10/05 08:12:21;;;;;;;4.60;3.03;;;16.50;76.60;;;;;;5092578;28;20102;-74
2022/10/05 08:14:51;;;;;;;3.30;2.90;;;16.50;76.60;;;;;;5074273;28;20391;-74
2022/10/05 08:17:36;;;;;;;4.82;3.20;;;16.50;76.60;;;;;;5092261;28;20032;-74
2022/10/05 08:20:32;;;;;;;3.38;2.75;;;16.60;76.50;;;;;;5073963;28;20048;-74
2022/10/05 08:23:34;;;;;;;3.40;2.90;;;16.60;76.40;;;;;;5085253;28;20059;-74
2022/10/05 08:26:05;;;;;;;3.35;2.53;;;16.60;76.30;;;;;;5071506;28;20536;-75
2022/10/05 08:28:51;;;;;;;2.67;2.20;;;16.60;76.20;;;;;;5092237;28;20044;-74
2022/10/05 08:31:22;;;;;;;2.60;2.40;;;16.70;76.10;;;;;;5073166;28;20035;-74
2022/10/05 08:33:59;;;;;;;2.67;2.47;;;16.70;76.00;;;;;;5073651;28;20085;-74
2022/10/05 08:36:52;;;;;;;2.88;2.10;;;16.80;75.80;;;;;;5091985;28;20024;-75
2022/10/05 08:39:21;;;;;;;4.18;2.47;;;16.80;75.50;;;;;;5055270;28;20047;-75
2022/10/05 08:42:05;;;;;;;2.58;1.98;;;16.90;75.50;;;;;;5073882;28;20475;-74
2022/10/05 08:44:54;;;;;;;3.28;2.17;;;17.00;75.30;;;;;;5091675;28;20048;-74
2022/10/05 08:47:45;;;;;;;4.10;2.10;;;17.00;75.20;;;;;;5091797;28;20173;-74
2022/10/05 08:50:18;;;;;;;4.35;2.30;;;17.00;75.10;;;;;;5073651;28;20028;-74
2022/10/05 08:53:27;;;;;;;2.25;1.88;;;17.10;75.00;;;;;;5091578;28;20027;-74
2022/10/05 08:56:03;;;;;;;2.42;2.22;;;17.20;75.00;;;;;;5091423;28;20032;-74
2022/10/05 08:59:13;;;;;;;4.63;2.10;;;17.30;74.70;;;;;;5091555;28;20028;-74
2022/10/05 09:01:48;;;;;;;3.22;2.13;;;17.30;74.60;;;;;;5073248;28;20024;-74
2022/10/05 09:04:13;;;;;;;3.88;2.00;;;17.40;74.50;;;;;;5091431;28;20098;-74
2022/10/05 09:06:52;;;;;;;2.67;1.98;;;17.40;74.60;;;;;;5073416;28;20040;-74
2022/10/05 09:09:36;;;;;;;2.72;2.13;;;17.50;74.40;;;;;;5091505;28;20123;-74
2022/10/05 09:12:05;;;;;;;3.63;2.03;;;17.60;74.20;;;;;;5073099;28;20115;-74
2022/10/05 09:14:50;;;;;;;4.13;2.30;;;17.60;74.10;;;;;;5091047;28;20028;-74
2022/10/05 09:17:41;;;;;;;3.67;2.17;;;17.70;74.10;;;;;;5091225;28;20028;-74
2022/10/05 09:20:21;;;;;;;4.30;2.20;;;17.70;74.00;;;;;;5091815;28;20228;-74
2022/10/05 09:23:19;;;;;;;3.15;2.30;;;17.80;73.80;;;;;;5091492;28;20031;-74
2022/10/05 09:25:55;;;;;;;4.45;2.17;;;17.80;73.70;;;;;;5088147;28;20032;-74
2022/10/05 09:29:07;;;;;;;2.47;2.15;;;17.80;73.50;;;;;;5090979;28;20052;-74
2022/10/05 09:32:17;;;;;;;2.92;2.15;;;17.90;73.50;;;;;;5067349;28;20032;-74
2022/10/05 09:35:02;;;;;;;2.70;2.13;;;18.00;73.40;;;;;;5091156;28;20062;-74
2022/10/05 09:37:48;;;;;;;2.88;2.05;;;18.00;73.20;;;;;;5073470;28;20024;-74
2022/10/05 09:40:50;;;;;;;2.95;2.17;;;18.10;73.80;;;;;;5091298;28;20032;-74
2022/10/05 09:43:46;;;;;;;2.30;2.00;;;18.10;73.10;;;;;;5077162;28;20383;-74
2022/10/05 09:46:34;;;;;;;5.38;2.30;;;18.20;73.10;;;;;;5095464;28;20104;-74
2022/10/05 09:49:48;;;;;;;4.00;2.42;;;18.20;72.90;;;;;;5095223;28;20019;-74
2022/10/05 09:52:46;;;;;;;4.70;2.30;;;18.20;72.90;;;;;;5076920;28;20470;-74
2022/10/05 09:55:30;;;;;;;2.38;1.90;;;18.30;72.80;;;;;;5061277;28;20044;-74
2022/10/05 09:58:16;;;;;;;3.55;2.08;;;18.40;72.60;;;;;;5095227;28;20507;-74
2022/10/05 10:01:22;;;;;;;2.92;2.08;;;18.40;72.50;;;;;;5095146;28;20028;-75
2022/10/05 10:04:13;;;;;;;2.97;2.03;;;18.50;72.50;;;;;;5076823;28;20028;-75
2022/10/05 10:06:52;;;;;;;2.47;1.88;;;18.60;72.40;;;;;;5095282;28;20538;-74
2022/10/05 10:09:43;;;;;;;2.17;1.98;;;18.60;72.20;;;;;;5076995;28;20479;-74
2022/10/05 10:12:46;;;;;;;3.47;1.92;;;18.70;72.10;;;;;;5076852;28;20046;-74
2022/10/05 10:15:37;;;;;;;4.47;2.42;;;18.80;72.00;;;;;;5076371;28;20061;-75
2022/10/05 10:18:37;;;;;;;5.40;2.33;;;18.80;71.80;;;;;;5094777;28;20150;-75
2022/10/05 10:21:21;;;;;;;3.42;2.20;;;18.90;72.30;;;;;;5094706;28;20053;-74
2022/10/05 10:24:32;;;;;;;4.53;2.03;;;18.90;71.50;;;;;;5094579;28;20054;-75
2022/10/05 10:27:15;;;;;;;2.88;2.08;;;19.00;71.50;;;;;;5060764;28;20108;-75
2022/10/05 10:30:17;;;;;;;4.47;1.90;;;19.10;71.10;;;;;;5094496;28;20044;-75
2022/10/05 10:33:20;;;;;;;2.28;1.75;;;19.10;70.90;;;;;;5076039;28;20534;-75
2022/10/05 10:36:34;;;;;;;1.88;1.63;;;19.10;70.70;;;;;;5094546;28;20037;-75
2022/10/05 10:39:31;;;;;;;2.47;1.90;;;19.20;70.70;;;;;;5094414;28;20028;-75
2022/10/05 10:42:18;;;;;;;3.10;2.00;;;19.20;70.60;;;;;;5073089;28;20270;-75
2022/10/05 10:45:00;;;;;;;3.25;2.20;;;19.30;70.40;;;;;;5094360;28;20020;-75
2022/10/05 10:47:55;;;;;;;3.25;1.85;;;19.40;70.10;;;;;;5094261;28;20097;-75
2022/10/05 10:50:42;;;;;;;3.03;1.52;;;19.40;70.00;;;;;;5094331;28;20099;-75
2022/10/05 10:53:30;;;;;;;1.85;1.50;;;19.40;70.00;;;;;;5092938;28;20419;-75
2022/10/05 10:56:20;;;;;;;3.55;1.73;;;19.40;69.90;;;;;;5094075;28;20554;-76
2022/10/05 10:59:03;;;;;;;2.00;1.80;;;19.40;69.90;;;;;;5075669;28;20056;-75
2022/10/05 11:01:50;;;;;;;;;;;19.40;69.90;;;;;;5076438;28;20024;-75
2022/10/05 11:04:39;;;;;;;4.78;1.60;;;19.50;69.80;;;;;;5075901;28;19911;-75
2022/10/05 11:07:42;;;;;;;2.97;1.50;;;19.40;69.70;;;;;;5093827;28;20032;-75
2022/10/05 11:10:24;;;;;;;2.22;1.55;;;19.40;69.70;;;;;;5075762;28;20032;-75
2022/10/05 11:13:27;;;;;;;1.83;1.55;;;19.40;69.70;;;;;;5093676;28;20020;-75
2022/10/05 11:16:13;;;;;;;2.53;1.73;;;19.50;69.50;;;;;;5093429;28;20417;-74
2022/10/05 11:19:14;;;;;;;2.88;1.77;;;19.40;69.70;;;;;;5093735;28;20020;-74
2022/10/05 11:21:55;;;;;;;2.38;1.60;;;19.50;69.70;;;;;;5075368;28;20452;-74
2022/10/05 11:25:05;;;;;;;2.28;1.63;;;19.50;69.30;;;;;;5094007;28;20089;-75
2022/10/05 11:28:18;;;;;;;3.50;1.60;;;19.60;69.20;;;;;;5093402;28;20025;-75
2022/10/05 11:30:56;;;;;;;2.97;1.27;;;19.60;69.20;;;;;;5013966;28;20033;-75
2022/10/05 11:33:42;;;;;;;2.47;1.52;;;19.60;69.10;;;;;;5030722;28;20035;-74
2022/10/05 11:36:31;;;;;;;2.05;1.40;;;19.70;68.90;;;;;;5035462;28;20150;-74
2022/10/05 11:39:03;;;;;;;2.85;1.67;;;19.70;68.80;;;;;;5074073;28;20470;-74
2022/10/05 11:41:46;;;;;;;1.73;1.38;;;19.80;68.70;;;;;;5074816;28;20077;-75
2022/10/05 11:45:06;;;;;;;2.92;2.10;;;19.70;68.60;;;;;;5074899;28;20027;-76
2022/10/05 11:47:50;;;;;;;1.60;1.38;;;19.80;68.50;;;;;;5013606;28;20057;-76
2022/10/05 11:50:21;;;;;;;2.30;1.70;;;19.70;68.50;;;;;;5093049;28;20022;-76
2022/10/05 11:53:00;;;;;;;1.90;1.40;;;19.80;68.60;;;;;;5092646;28;20021;-75
2022/10/05 11:55:34;;;;;;;2.70;1.70;;;19.90;68.50;;;;;;5092671;28;20058;-76
2022/10/05 11:58:26;;;;;;;1.75;1.45;;;19.90;68.60;;;;;;5092792;28;20486;-76
2022/10/05 12:01:00;;;;;;;2.03;1.52;;;20.00;68.40;;;;;;5074501;28;20020;-75
2022/10/05 12:03:44;;;;;;;2.90;1.75;;;19.90;68.20;;;;;;5074708;28;20016;-75
2022/10/05 12:06:28;;;;;;;1.70;1.50;;;20.00;68.20;;;;;;5092753;28;20050;-76
2022/10/05 12:09:22;;;;;;;1.50;1.40;;;20.00;68.00;;;;;;5074450;28;20483;-76
2022/10/05 12:12:21;;;;;;;2.33;1.65;;;20.00;68.10;;;;;;5092737;28;20099;-75
2022/10/05 12:15:22;;;;;;;4.13;1.50;;;20.00;67.90;;;;;;5092552;28;20024;-75
2022/10/05 12:17:58;;;;;;;2.40;1.60;;;20.00;67.90;;;;;;5074310;28;20044;-75
2022/10/05 12:20:27;;;;;;;2.88;1.83;;;20.00;67.90;;;;;;5092408;28;20048;-75
2022/10/05 12:23:19;;;;;;;2.20;1.42;;;20.10;67.80;;;;;;5092341;28;20023;-76
2022/10/05 12:25:59;;;;;;;2.58;1.40;;;20.10;67.90;;;;;;5074589;28;20024;-75
2022/10/05 12:29:01;;;;;;;1.55;1.42;;;20.10;68.00;;;;;;5074117;28;20044;-75
2022/10/05 12:31:45;;;;;;;3.53;1.50;;;20.10;67.80;;;;;;5072892;28;20442;-75
2022/10/05 12:34:27;;;;;;;2.72;1.15;;;20.20;67.80;;;;;;5073880;28;20069;-75
2022/10/05 12:36:57;;;;;;;3.03;1.40;;;20.30;67.60;;;;;;5092067;28;20732;-75
2022/10/05 12:39:29;;;;;;;1.73;1.40;;;20.40;67.70;;;;;;5091985;28;20025;-75
2022/10/05 12:42:07;;;;;;;2.95;1.45;;;20.50;67.50;;;;;;5091917;28;20020;-75
2022/10/05 12:45:19;;;;;;;1.88;1.50;;;20.50;67.30;;;;;;5091743;28;20024;-75
2022/10/05 12:48:08;;;;;;;3.05;1.60;;;20.60;67.20;;;;;;5092018;28;20063;-75
2022/10/05 12:50:38;;;;;;;2.17;1.60;;;20.60;67.10;;;;;;5091890;28;20027;-75
2022/10/05 12:53:32;;;;;;;3.28;1.65;;;20.60;67.00;;;;;;5091787;28;20508;-76
2022/10/05 12:56:38;;;;;;;1.48;1.30;;;20.60;67.10;;;;;;5091923;28;20447;-75
2022/10/05 12:59:15;;;;;;;3.00;1.70;;;20.70;67.10;;;;;;5060110;28;20043;-75
2022/10/05 13:02:03;;;;;;;3.78;1.70;;;20.70;66.60;;;;;;5091638;28;20333;-75
2022/10/05 13:04:37;;;;;;;1.80;1.58;;;20.70;66.60;;;;;;5091645;28;20020;-75
2022/10/05 13:07:11;;;;;;;1.40;1.30;;;20.70;66.70;;;;;;5091914;28;20020;-76
2022/10/05 13:09:48;;;;;;;2.67;1.60;;;20.80;66.90;;;;;;5073658;28;20384;-75
2022/10/05 13:12:25;;;;;;;1.85;1.30;;;20.80;66.80;;;;;;5091655;28;20022;-75
2022/10/05 13:14:54;;;;;;;1.65;1.30;;;20.80;66.80;;;;;;5073419;28;20092;-75
2022/10/05 13:17:22;;;;;;;2.90;1.35;;;20.80;66.90;;;;;;5090914;28;20024;-74
2022/10/05 13:20:01;;;;;;;1.40;1.10;;;20.90;66.90;;;;;;5091536;28;20031;-76
2022/10/05 13:22:54;;;;;;;2.45;1.30;;;20.90;66.90;;;;;;5073299;28;20386;-76
2022/10/05 13:25:39;;;;;;;2.33;1.25;;;20.90;66.80;;;;;;5073387;28;20016;-76
2022/10/05 13:28:15;;;;;;;2.83;1.40;;;20.90;66.70;;;;;;5072930;28;20016;-75
2022/10/05 13:31:12;;;;;;;6.15;1.00;;;21.00;66.90;;;;;;5091364;28;20105;-74
2022/10/05 13:34:18;;;;;;;1.48;1.10;;;21.10;66.80;;;;;;5083060;28;20441;-74
2022/10/05 13:37:16;;;;;;;2.30;1.27;;;21.10;66.80;;;;;;5073183;28;20403;-75
2022/10/05 13:39:48;;;;;;;1.98;1.40;;;21.10;66.70;;;;;;5073111;28;20081;-75
2022/10/05 13:42:14;;;;;;;2.97;1.30;;;21.10;66.80;;;;;;5091244;28;20035;-75
2022/10/05 13:45:05;;;;;;;1.98;1.27;;;21.10;66.90;;;;;;5091235;28;20131;-74
2022/10/05 13:47:38;;;;;;;3.25;1.40;;;21.10;66.80;;;;;;5062226;28;20036;-75
2022/10/05 13:50:16;;;;;;;1.25;1.10;;;21.10;66.90;;;;;;5073116;28;20016;-74
2022/10/05 13:52:44;;;;;;;4.65;1.60;;;21.10;66.90;;;;;;5091203;28;20624;-75
2022/10/05 13:55:39;;;;;;;2.30;1.30;;;21.20;66.80;;;;;;5091103;28;20033;-76
2022/10/05 13:58:16;;;;;;;2.38;1.30;;;21.30;66.60;;;;;;5090918;28;20020;-75
2022/10/05 14:00:57;;;;;;;1.48;1.33;;;21.30;66.70;;;;;;5091083;28;20020;-75
2022/10/05 14:03:33;;;;;;;1.70;1.23;;;21.30;66.50;;;;;;5090823;28;20065;-75
2022/10/05 14:06:02;;;;;;;2.72;1.20;;;21.40;66.40;;;;;;5072809;28;20470;-74
2022/10/05 14:08:32;;;;;;;2.53;1.35;;;21.40;66.20;;;;;;5072949;28;20150;-75
2022/10/05 14:10:58;;;;;;;1.63;1.40;;;21.30;66.20;;;;;;5072776;28;20024;-75
2022/10/05 14:13:45;;;;;;;2.92;1.23;;;21.30;66.20;;;;;;5072680;28;20550;-75
2022/10/05 14:16:11;;;;;;;1.38;1.10;;;21.30;66.20;;;;;;5091116;28;20520;-75
2022/10/05 14:18:48;;;;;;;2.17;1.25;;;21.30;66.10;;;;;;5091011;28;20048;-74